Paxton, Massachusetts
Current Conditions -  °F | °C
As of 3:54 PM on Monday 22 Dec 2014 (Local Time) from KORH Reporting Station
Light Snow Light Snow  
Wind Chill: 30°   Ceiling: 900
Heat Index: 35°   Visibility: 3mi
Dew Point: 32°   Wind: 6mph
Humidity: 89%   Direction: 30°NNE
Pressure: 30.29"   Gusts: NA
Location:  42.31°N, 71.93°W
Report Text: KORH 222054Z 03005KT 3SM -SN BR OVC009 02/00 A3029 RMK AO2 SFC VIS 4 SNB49 SLP271 P0000 60000 T00170000 53003
Loading
Personal Weather Stations






























Interactive Weather Map New forecast layout! Learn more

10-Day Weather Forecast

Advertisements
Track Severe Weather on mobile